Time;durP1;ratioP1;P1;durP2;ratioP2;P2;SDS_P1;SDS_P2;PMS_P1;PMS_P2;Temp;Humidity;BMP_temperature;BMP_pressure;BME280_temperature;BME280_humidity;BME280_pressure;Samples;Min_cycle;Max_cycle;Signal;HPM_P1;HPM_P2
2023/11/15 14:04:38;;;;;;;4.30;2.30;;;;;;;8.73;75.87;96389.60;101524;1307;642687;-78
2023/11/15 14:07:45;;;;;;;6.60;2.50;;;;;;;8.66;75.61;96395.73;103183;1284;95910;-77
2023/11/15 14:10:54;;;;;;;5.60;2.80;;;;;;;8.58;75.18;96398.29;102166;1292;96873;-78
2023/11/15 14:13:57;;;;;;;5.80;2.90;;;;;;;8.53;75.16;96403.19;102194;1299;98710;-77
2023/11/15 14:16:47;;;;;;;4.30;2.20;;;;;;;8.49;74.97;96408.60;98178;1295;5396758;-76
2023/11/15 14:29:39;;;;;;;8.10;3.00;;;;;;;8.47;74.37;96419.27;101301;1308;635966;-75
2023/11/15 14:32:47;;;;;;;6.70;3.30;;;;;;;8.45;74.27;96416.73;103872;1286;95919;-86
2023/11/15 14:35:57;;;;;;;7.60;3.10;;;;;;;8.46;74.11;96411.25;102493;1297;95854;-78
2023/11/15 14:55:15;;;;;;;4.70;2.90;;;;;;;8.47;72.59;96430.66;101134;1314;639521;-79
2023/11/15 14:58:25;;;;;;;8.90;3.90;;;;;;;8.45;72.39;96432.70;102831;1289;96094;-80
2023/11/15 15:14:11;;;;;;;9.60;5.80;;;;;;;8.37;73.20;96445.75;101288;1306;638370;-78
2023/11/15 15:17:04;;;;;;;20.30;11.80;;;;;;;8.28;73.51;96453.91;103883;1276;95908;-89
2023/11/15 15:20:14;;;;;;;26.80;12.60;;;;;;;8.23;73.68;96455.55;103834;1279;96275;-79
2023/11/15 15:23:14;;;;;;;13.60;6.10;;;;;;;8.18;73.72;96464.87;103387;1277;98781;-76
2023/11/15 15:26:23;;;;;;;7.70;4.70;;;;;;;8.12;73.56;96467.89;103360;1286;100589;-76
2023/11/15 15:54:42;;;;;;;8.00;4.50;;;;;;;8.04;72.63;96514.17;101400;1298;636567;-75
2023/11/15 15:57:50;;;;;;;8.50;4.70;;;;;;;8.03;72.66;96523.23;104137;1273;96012;-77
2023/11/15 16:00:53;;;;;;;5.60;3.30;;;;;;;8.05;72.56;96532.91;103971;1283;96069;-90
2023/11/15 16:04:01;;;;;;;6.60;4.20;;;;;;;8.05;72.65;96535.02;103161;1278;98175;-77
2023/11/15 16:07:12;;;;;;;16.30;6.00;;;;;;;8.03;72.54;96537.05;100358;1286;3310165;-78
2023/11/15 16:23:09;;;;;;;6.90;4.00;;;;;;;7.94;72.49;96548.77;101744;1298;636214;-89
2023/11/15 16:26:18;;;;;;;7.30;4.00;;;;;;;7.92;72.44;96550.42;104378;1269;96034;-88
2023/11/15 16:29:26;;;;;;;8.70;4.60;;;;;;;7.91;72.45;96548.41;104354;1272;95985;-90
2023/11/15 16:32:35;;;;;;;6.70;4.20;;;;;;;7.88;72.26;96553.51;103578;1284;97377;-76
2023/11/15 16:35:40;;;;;;;6.00;3.70;;;;;;;7.87;72.40;96553.17;98980;1278;5407248;-76
2023/11/15 16:54:56;;;;;;;7.00;3.80;;;;;;;7.78;72.12;96572.98;101252;1298;638325;-75
2023/11/15 16:58:06;;;;;;;7.40;3.90;;;;;;;7.73;72.18;96579.67;103997;1272;95902;-85
2023/11/15 17:01:14;;;;;;;6.70;3.60;;;;;;;7.68;72.12;96589.11;103334;1280;96042;-84
2023/11/15 17:04:24;;;;;;;6.40;3.60;;;;;;;7.66;72.05;96597.17;102646;1293;98639;-87
2023/11/15 17:28:22;;;;;;;6.30;3.30;;;;;;;7.55;71.24;96658.20;102133;1295;636444;-83
2023/11/15 17:31:32;;;;;;;5.70;3.40;;;;;;;7.53;71.10;96671.13;103879;1272;96571;-80
2023/11/15 17:48:00;;;;;;;7.70;4.50;;;;;;;7.61;71.14;96701.62;101398;1303;642478;-78
2023/11/15 17:51:08;;;;;;;8.90;5.30;;;;;;;7.58;71.02;96707.25;102794;1289;96194;-78
2023/11/15 17:54:14;;;;;;;7.20;3.70;;;;;;;7.57;71.22;96707.20;102198;1296;97332;-78
2023/11/15 18:07:10;;;;;;;5.80;3.50;;;;;;;7.60;71.11;96725.47;101489;1301;637821;-81
2023/11/15 18:10:25;;;;;;;4.80;3.00;;;;;;;7.57;71.02;96726.30;103455;1282;95914;-79
2023/11/15 18:13:35;;;;;;;6.20;3.70;;;;;;;7.56;71.01;96735.42;102586;1292;96913;-79
2023/11/15 18:25:38;;;;;;;7.80;4.90;;;;;;;7.59;71.04;96749.43;101783;1290;635979;-75
2023/11/15 18:28:05;;;;;;;9.70;4.10;;;;;;;7.58;71.01;96755.63;104199;1270;97243;-74
2023/11/15 18:30:33;;;;;;;6.90;4.00;;;;;;;7.59;70.99;96760.27;104262;1277;95858;-72
2023/11/15 18:33:03;;;;;;;9.60;4.50;;;;;;;7.61;70.99;96761.76;104193;1270;99500;-73
2023/11/15 18:35:32;;;;;;;6.30;3.50;;;;;;;7.61;70.75;96761.98;104334;1269;101322;-73
2023/11/15 18:38:00;;;;;;;3.90;2.60;;;;;;;7.61;70.62;96763.80;104251;1283;99490;-72
2023/11/15 18:40:27;;;;;;;9.10;4.40;;;;;;;7.60;70.43;96766.52;104272;1266;97275;-80
2023/11/15 18:42:57;;;;;;;5.80;3.20;;;;;;;7.57;70.27;96772.58;104432;1264;95940;-80
2023/11/15 18:45:25;;;;;;;7.60;4.50;;;;;;;7.54;70.09;96775.63;104196;1272;99520;-73
2023/11/15 18:47:53;;;;;;;7.90;4.10;;;;;;;7.53;70.14;96776.62;104242;1267;100074;-73
2023/11/15 18:50:20;;;;;;;4.50;3.30;;;;;;;7.52;70.06;96778.96;104230;1268;98493;-73
2023/11/15 18:52:49;;;;;;;5.20;3.30;;;;;;;7.50;69.80;96778.67;104999;1252;95932;-73
2023/11/15 18:55:18;;;;;;;5.90;2.90;;;;;;;7.50;69.81;96778.18;105097;1254;95889;-73
2023/11/15 18:57:45;;;;;;;5.20;3.10;;;;;;;7.49;69.75;96777.77;104662;1258;99928;-73
2023/11/15 19:00:17;;;;;;;5.80;3.20;;;;;;;7.48;69.77;96776.89;105096;1254;101319;-73
2023/11/15 19:02:46;;;;;;;5.00;3.60;;;;;;;7.46;69.61;96777.79;105098;1256;99003;-74
2023/11/15 19:05:16;;;;;;;4.50;3.30;;;;;;;7.45;69.37;96784.27;105102;1256;95895;-75
2023/11/15 19:07:44;;;;;;;5.70;3.00;;;;;;;7.43;69.20;96788.45;104796;1260;96052;-74
2023/11/15 19:10:16;;;;;;;7.20;3.40;;;;;;;7.41;69.24;96790.87;104749;1260;101109;-74
2023/11/15 19:12:45;;;;;;;6.70;4.00;;;;;;;7.40;69.23;96793.14;104930;1259;101402;-74
2023/11/15 19:15:14;;;;;;;9.70;6.60;;;;;;;7.38;68.68;96793.01;104858;1260;99649;-80
2023/11/15 19:17:48;;;;;;;10.30;5.90;;;;;;;7.36;69.00;96794.72;105176;1256;97208;-81
2023/11/15 19:20:18;;;;;;;7.60;4.10;;;;;;;7.34;69.10;96799.64;105082;1254;97212;-73
2023/11/15 19:22:47;;;;;;;7.00;4.50;;;;;;;7.33;69.14;96803.77;104790;1259;100846;-72
2023/11/15 19:25:15;;;;;;;7.10;4.20;;;;;;;7.32;68.79;96808.98;105010;1255;101347;-73
2023/11/15 19:27:44;;;;;;;5.70;3.50;;;;;;;7.30;68.83;96812.42;104846;1259;99654;-73
2023/11/15 19:30:12;;;;;;;15.20;7.60;;;;;;;7.28;68.77;96814.15;105062;1256;96801;-73
2023/11/15 19:32:40;;;;;;;13.30;6.60;;;;;;;7.26;68.98;96814.19;105061;1253;95862;-81
2023/11/15 19:35:10;;;;;;;6.80;4.00;;;;;;;7.26;69.29;96820.80;105058;1256;100866;-82
2023/11/15 19:37:38;;;;;;;16.30;8.50;;;;;;;7.25;69.15;96820.77;105035;1256;102040;-82
2023/11/15 19:40:08;;;;;;;6.00;3.80;;;;;;;7.24;69.15;96825.89;104998;1257;97588;-83
2023/11/15 19:42:38;;;;;;;8.60;5.40;;;;;;;7.21;69.49;96834.06;105077;1254;95880;-82
2023/11/15 19:45:07;;;;;;;5.00;3.20;;;;;;;7.14;70.10;96833.54;105060;1256;96174;-82
2023/11/15 19:47:35;;;;;;;5.80;4.50;;;;;;;7.09;70.31;96836.89;105133;1256;100876;-75
2023/11/15 19:50:03;;;;;;;9.30;5.40;;;;;;;7.05;70.40;96838.98;105015;1254;101351;-75
2023/11/15 19:52:31;;;;;;;15.80;9.20;;;;;;;7.00;70.39;96836.91;105000;1257;99939;-75
2023/11/15 19:54:59;;;;;;;9.60;5.60;;;;;;;6.96;70.35;96838.88;105072;1256;95853;-74
2023/11/15 19:57:27;;;;;;;12.10;5.00;;;;;;;6.93;70.32;96841.14;105043;1256;95848;-82
2023/11/15 19:59:57;;;;;;;6.50;3.50;;;;;;;6.92;70.43;96844.84;104998;1254;100045;-84
2023/11/15 20:02:26;;;;;;;12.00;6.60;;;;;;;6.93;70.43;96852.31;105093;1256;100323;-82
2023/11/15 20:04:54;;;;;;;7.30;4.40;;;;;;;6.92;70.59;96847.77;105049;1252;98956;-83
2023/11/15 20:07:21;;;;;;;6.20;3.90;;;;;;;6.92;70.60;96850.05;105046;1258;97096;-81
2023/11/15 20:09:52;;;;;;;7.10;4.40;;;;;;;6.93;70.57;96847.78;105070;1256;96014;-83
2023/11/15 20:12:23;;;;;;;19.50;12.00;;;;;;;6.94;70.49;96847.70;105082;1256;99481;-82
2023/11/15 20:14:51;;;;;;;10.20;5.80;;;;;;;6.93;70.36;96848.81;105048;1269;100127;-83
2023/11/15 20:17:18;;;;;;;5.00;3.90;;;;;;;6.93;70.36;96852.98;105039;1254;100151;-73
2023/11/15 20:19:46;;;;;;;5.10;3.30;;;;;;;6.90;70.17;96854.38;105008;1257;95912;-73
2023/11/15 20:22:14;;;;;;;6.70;3.00;;;;;;;6.88;70.22;96857.18;105110;1254;95996;-72
2023/11/15 20:24:42;;;;;;;6.60;3.80;;;;;;;6.88;70.09;96862.80;105197;1257;100670;-73
2023/11/15 20:27:10;;;;;;;4.80;3.00;;;;;;;6.88;70.22;96862.17;105165;1258;101753;-73
2023/11/15 20:29:39;;;;;;;5.70;3.40;;;;;;;6.89;70.19;96862.74;105169;1254;98929;-73
2023/11/15 20:32:07;;;;;;;8.00;3.20;;;;;;;6.89;70.13;96866.64;105155;1252;96826;-73
2023/11/15 20:34:35;;;;;;;5.80;3.50;;;;;;;6.88;70.06;96871.06;105179;1256;96923;-73
2023/11/15 20:37:03;;;;;;;7.90;4.20;;;;;;;6.87;70.14;96870.04;105204;1256;100975;-73
2023/11/15 20:39:31;;;;;;;10.60;5.20;;;;;;;6.87;70.22;96872.75;105117;1257;101480;-73
2023/11/15 20:41:59;;;;;;;6.30;4.30;;;;;;;6.86;70.13;96873.20;105055;1258;99041;-73
2023/11/15 20:44:27;;;;;;;10.10;4.80;;;;;;;6.86;70.10;96874.98;104963;1255;96148;-73
2023/11/15 20:46:55;;;;;;;14.30;6.30;;;;;;;6.87;69.99;96877.95;105029;1256;96779;-82
2023/11/15 20:49:23;;;;;;;9.90;4.20;;;;;;;6.86;69.86;96881.04;104994;1256;99878;-81
2023/11/15 20:51:52;;;;;;;70.50;28.80;;;;;;;6.87;69.72;96881.50;105029;1257;101390;-81
2023/11/15 20:54:24;;;;;;;25.60;13.20;;;;;;;6.86;69.80;96886.90;104892;1255;99144;-81
2023/11/15 20:56:52;;;;;;;36.30;17.80;;;;;;;6.87;69.85;96894.05;105019;1258;95969;-80
2023/11/15 20:59:20;;;;;;;15.20;8.00;;;;;;;6.88;69.83;96897.68;105011;1257;95841;-81
2023/11/15 21:01:48;;;;;;;11.90;6.60;;;;;;;6.89;69.64;96897.50;105005;1256;100982;-79
2023/11/15 21:04:19;;;;;;;7.40;4.00;;;;;;;6.87;69.77;96895.73;104599;1261;101276;-79
2023/11/15 21:06:50;;;;;;;13.60;7.40;;;;;;;6.87;69.52;96895.12;104665;1263;99959;-80
2023/11/15 21:09:18;;;;;;;12.60;7.10;;;;;;;6.87;69.29;96890.95;104668;1263;95951;-80
2023/11/15 21:11:47;;;;;;;9.60;5.00;;;;;;;6.89;69.42;96890.65;104600;1261;95905;-80
2023/11/15 21:14:14;;;;;;;21.20;10.60;;;;;;;6.88;69.34;96893.71;104634;1262;100995;-80
2023/11/15 21:16:42;;;;;;;7.20;3.70;;;;;;;6.86;69.22;96893.17;104644;1261;100125;-80
2023/11/15 21:19:10;;;;;;;16.60;7.50;;;;;;;6.84;68.80;96899.36;104598;1275;106645;-80
2023/11/15 21:21:39;;;;;;;7.00;3.60;;;;;;;6.82;68.67;96900.83;104606;1279;95932;-79
2023/11/15 21:24:08;;;;;;;20.10;9.70;;;;;;;6.82;69.03;96896.75;104597;1257;96931;-80
2023/11/15 21:26:36;;;;;;;19.60;10.50;;;;;;;6.83;68.92;96894.80;104690;1260;99852;-80
2023/11/15 21:29:08;;;;;;;6.70;4.20;;;;;;;6.82;68.45;96893.36;104640;1261;100400;-80
2023/11/15 21:31:40;;;;;;;6.80;4.20;;;;;;;6.82;68.49;96886.75;104666;1260;98698;-72
2023/11/15 21:34:08;;;;;;;5.80;4.10;;;;;;;6.82;68.25;96886.88;104458;1275;96071;-72
2023/11/15 21:36:37;;;;;;;7.30;4.40;;;;;;;6.80;68.12;96887.11;104914;1258;96140;-73
2023/11/15 21:39:08;;;;;;;6.40;3.60;;;;;;;6.80;68.27;96894.20;104827;1257;100886;-71
2023/11/15 21:41:36;;;;;;;7.10;3.40;;;;;;;6.79;68.49;96902.45;104724;1263;101081;-71
2023/11/15 21:44:04;;;;;;;6.60;2.60;;;;;;;6.79;67.87;96904.85;104909;1260;99626;-72
2023/11/15 21:46:32;;;;;;;5.90;3.10;;;;;;;6.76;67.17;96911.69;104908;1257;96802;-71
2023/11/15 21:49:00;;;;;;;3.50;2.40;;;;;;;6.72;67.63;96912.52;104887;1259;96766;-71
2023/11/15 21:51:28;;;;;;;3.20;2.00;;;;;;;6.72;67.78;96913.41;104625;1262;101099;-72
2023/11/15 21:53:55;;;;;;;4.20;2.70;;;;;;;6.74;67.78;96914.00;105002;1259;100029;-71
2023/11/15 21:56:23;;;;;;;3.30;2.50;;;;;;;6.75;67.84;96918.05;104921;1258;98915;-72
2023/11/15 21:58:52;;;;;;;4.40;2.60;;;;;;;6.77;67.31;96922.87;104931;1254;95858;-72
2023/11/15 22:01:20;;;;;;;3.20;2.40;;;;;;;6.75;67.30;96923.75;105026;1258;97192;-78
2023/11/15 22:03:48;;;;;;;3.70;2.60;;;;;;;6.76;67.65;96926.16;104965;1260;101003;-79
2023/11/15 22:06:16;;;;;;;8.60;3.30;;;;;;;6.78;67.80;96931.25;104970;1257;100369;-80
2023/11/15 22:08:44;;;;;;;13.20;8.50;;;;;;;6.81;67.98;96938.95;104934;1259;100274;-79
2023/11/15 22:11:12;;;;;;;7.00;4.70;;;;;;;6.80;67.69;96938.57;104907;1258;96032;-73
2023/11/15 22:13:40;;;;;;;3.40;2.50;;;;;;;6.77;68.05;96942.68;104956;1260;96088;-80
2023/11/15 22:16:08;;;;;;;4.30;2.60;;;;;;;6.75;68.22;96939.88;104921;1258;99658;-80
2023/11/15 22:18:39;;;;;;;3.90;2.50;;;;;;;6.73;68.35;96934.46;105008;1257;101470;-79
2023/11/15 22:21:07;;;;;;;5.10;2.20;;;;;;;6.71;68.44;96933.99;105042;1259;99280;-80
2023/11/15 22:23:35;;;;;;;5.70;2.30;;;;;;;6.71;68.62;96933.34;105002;1255;96434;-79
2023/11/15 22:26:03;;;;;;;4.20;2.20;;;;;;;6.72;68.73;96936.40;105010;1257;95806;-78
2023/11/15 22:28:31;;;;;;;3.60;2.40;;;;;;;6.74;68.77;96938.48;105026;1269;100842;-78
2023/11/15 22:30:59;;;;;;;4.00;2.30;;;;;;;6.72;68.77;96941.89;105023;1257;101306;-79
2023/11/15 22:33:26;;;;;;;3.30;2.50;;;;;;;6.69;68.88;96939.39;105077;1260;99034;-78
2023/11/15 22:35:54;;;;;;;3.60;2.30;;;;;;;6.67;68.88;96941.48;104984;1267;97489;-80
2023/11/15 22:38:23;;;;;;;2.80;2.20;;;;;;;6.68;68.92;96944.20;104989;1256;96987;-78
2023/11/15 22:40:50;;;;;;;5.30;2.70;;;;;;;6.67;69.04;96940.58;104868;1259;102441;-78
2023/11/15 22:43:18;;;;;;;4.50;2.80;;;;;;;6.66;69.15;96937.55;105009;1256;101440;-78
2023/11/15 22:45:46;;;;;;;5.20;3.10;;;;;;;6.63;69.26;96934.65;104985;1267;100073;-79
2023/11/15 22:48:14;;;;;;;4.60;3.20;;;;;;;6.60;69.40;96934.05;105005;1256;96596;-78
2023/11/15 22:50:43;;;;;;;6.00;3.90;;;;;;;6.57;69.41;96935.31;104966;1258;97094;-72
2023/11/15 22:53:11;;;;;;;7.70;4.10;;;;;;;6.56;69.64;96936.55;104779;1255;101865;-71
2023/11/15 22:55:39;;;;;;;7.30;4.50;;;;;;;6.55;69.73;96940.20;104966;1254;101449;-72
2023/11/15 22:58:07;;;;;;;7.80;4.10;;;;;;;6.56;69.75;96941.20;104986;1276;100133;-71
2023/11/15 23:00:36;;;;;;;9.00;4.90;;;;;;;6.56;69.84;96941.00;105040;1275;97473;-72
2023/11/15 23:03:08;;;;;;;6.60;4.30;;;;;;;6.56;69.82;96938.48;104997;1257;98036;-72
2023/11/15 23:05:37;;;;;;;6.00;3.50;;;;;;;6.56;70.01;96936.84;105039;1257;102071;-71
2023/11/15 23:08:06;;;;;;;6.00;4.20;;;;;;;6.55;69.88;96940.70;105024;1257;101295;-78
2023/11/15 23:10:34;;;;;;;6.10;3.50;;;;;;;6.53;69.89;96942.30;104651;1269;101304;-78
2023/11/15 23:13:02;;;;;;;7.90;4.50;;;;;;;6.54;70.05;96943.05;105083;1256;96702;-78
2023/11/15 23:15:30;;;;;;;6.90;4.10;;;;;;;6.56;70.14;96942.70;105009;1256;97076;-78
2023/11/15 23:17:58;;;;;;;6.10;3.90;;;;;;;6.59;70.12;96944.16;105020;1258;102063;-79
2023/11/15 23:20:29;;;;;;;6.20;4.50;;;;;;;6.57;70.05;96943.56;104997;1256;101557;-78
2023/11/15 23:22:57;;;;;;;9.80;4.00;;;;;;;6.56;70.13;96945.09;104964;1254;98841;-78
2023/11/15 23:25:25;;;;;;;5.00;3.50;;;;;;;6.52;70.15;96946.26;104997;1257;97511;-78
2023/11/15 23:27:55;;;;;;;5.30;3.30;;;;;;;6.47;70.13;96949.45;105121;1256;97095;-73
2023/11/15 23:30:27;;;;;;;6.60;3.50;;;;;;;6.45;70.16;96951.98;105018;1256;101213;-73
2023/11/15 23:32:54;;;;;;;6.80;4.30;;;;;;;6.47;70.32;96955.89;104793;1259;100260;-79
2023/11/15 23:35:24;;;;;;;7.40;4.60;;;;;;;6.47;70.34;96957.08;104996;1257;99748;-79
2023/11/15 23:37:57;;;;;;;6.90;4.00;;;;;;;6.45;70.34;96958.05;105046;1256;97215;-78
2023/11/15 23:40:31;;;;;;;5.10;3.70;;;;;;;6.42;70.18;96958.52;105049;1256;98425;-79
2023/11/15 23:42:59;;;;;;;5.00;3.20;;;;;;;6.38;70.17;96964.62;105011;1254;102268;-79
2023/11/15 23:45:27;;;;;;;6.30;3.60;;;;;;;6.37;70.28;96966.83;105023;1256;100060;-78
2023/11/15 23:47:56;;;;;;;5.10;3.00;;;;;;;6.37;70.38;96965.73;105068;1257;99097;-72
2023/11/15 23:50:24;;;;;;;4.90;3.30;;;;;;;6.38;70.28;96969.08;105013;1256;97952;-72
2023/11/15 23:52:52;;;;;;;5.20;2.90;;;;;;;6.37;70.16;96966.97;104989;1254;98192;-72
2023/11/15 23:55:22;;;;;;;4.70;3.40;;;;;;;6.36;70.21;96970.86;104981;1256;102362;-72
2023/11/15 23:57:50;;;;;;;5.50;3.10;;;;;;;6.35;69.88;96972.80;104734;1261;101518;-72
